sensor_id;sensor_type;location;lat;lon;timestamp;P1;durP1;ratioP1;P2;durP2;ratioP2
5742;SDS011;2896;53.500;10.020;2022-10-16T00:00:29;4.80;;;4.40;;
5742;SDS011;2896;53.500;10.020;2022-10-16T00:02:56;8.83;;;4.63;;
5742;SDS011;2896;53.500;10.020;2022-10-16T00:05:22;6.63;;;4.40;;
5742;SDS011;2896;53.500;10.020;2022-10-16T00:07:51;10.77;;;4.80;;
5742;SDS011;2896;53.500;10.020;2022-10-16T00:10:17;3.80;;;3.53;;
5742;SDS011;2896;53.500;10.020;2022-10-16T00:12:44;5.93;;;3.83;;
5742;SDS011;2896;53.500;10.020;2022-10-16T00:15:11;9.27;;;3.90;;
5742;SDS011;2896;53.500;10.020;2022-10-16T00:17:38;4.97;;;3.13;;
5742;SDS011;2896;53.500;10.020;2022-10-16T00:20:05;5.10;;;3.07;;
5742;SDS011;2896;53.500;10.020;2022-10-16T00:22:32;5.30;;;3.20;;
5742;SDS011;2896;53.500;10.020;2022-10-16T00:25:00;8.33;;;3.37;;
5742;SDS011;2896;53.500;10.020;2022-10-16T00:27:27;3.83;;;2.90;;
5742;SDS011;2896;53.500;10.020;2022-10-16T00:29:54;13.63;;;3.43;;
5742;SDS011;2896;53.500;10.020;2022-10-16T00:32:20;7.80;;;2.63;;
5742;SDS011;2896;53.500;10.020;2022-10-16T00:34:47;11.60;;;3.20;;
5742;SDS011;2896;53.500;10.020;2022-10-16T00:37:13;6.70;;;3.10;;
5742;SDS011;2896;53.500;10.020;2022-10-16T00:39:40;12.40;;;3.40;;
5742;SDS011;2896;53.500;10.020;2022-10-16T00:42:09;3.17;;;2.90;;
5742;SDS011;2896;53.500;10.020;2022-10-16T00:44:42;4.83;;;3.60;;
5742;SDS011;2896;53.500;10.020;2022-10-16T00:47:10;9.13;;;3.70;;
5742;SDS011;2896;53.500;10.020;2022-10-16T00:49:39;5.00;;;3.77;;
5742;SDS011;2896;53.500;10.020;2022-10-16T00:52:06;3.97;;;3.47;;
5742;SDS011;2896;53.500;10.020;2022-10-16T00:54:33;3.70;;;3.40;;
5742;SDS011;2896;53.500;10.020;2022-10-16T00:57:01;6.70;;;4.10;;
5742;SDS011;2896;53.500;10.020;2022-10-16T00:59:32;5.87;;;4.23;;
5742;SDS011;2896;53.500;10.020;2022-10-16T01:02:01;8.43;;;3.80;;
5742;SDS011;2896;53.500;10.020;2022-10-16T01:04:29;6.93;;;4.17;;
5742;SDS011;2896;53.500;10.020;2022-10-16T01:07:02;3.57;;;3.33;;
5742;SDS011;2896;53.500;10.020;2022-10-16T01:09:37;6.70;;;4.27;;
5742;SDS011;2896;53.500;10.020;2022-10-16T01:12:14;4.43;;;4.03;;
5742;SDS011;2896;53.500;10.020;2022-10-16T01:14:47;6.23;;;4.90;;
5742;SDS011;2896;53.500;10.020;2022-10-16T01:17:20;5.53;;;4.70;;
5742;SDS011;2896;53.500;10.020;2022-10-16T01:19:56;6.13;;;4.97;;
5742;SDS011;2896;53.500;10.020;2022-10-16T01:22:33;4.50;;;4.07;;
5742;SDS011;2896;53.500;10.020;2022-10-16T01:25:07;7.83;;;3.73;;
5742;SDS011;2896;53.500;10.020;2022-10-16T01:27:42;4.10;;;3.80;;
5742;SDS011;2896;53.500;10.020;2022-10-16T01:30:15;6.23;;;4.27;;
5742;SDS011;2896;53.500;10.020;2022-10-16T01:32:48;8.40;;;5.17;;
5742;SDS011;2896;53.500;10.020;2022-10-16T01:35:20;4.83;;;4.07;;
5742;SDS011;2896;53.500;10.020;2022-10-16T01:37:51;10.20;;;4.10;;
5742;SDS011;2896;53.500;10.020;2022-10-16T01:40:23;6.20;;;4.07;;
5742;SDS011;2896;53.500;10.020;2022-10-16T01:42:54;4.43;;;3.47;;
5742;SDS011;2896;53.500;10.020;2022-10-16T01:45:26;3.63;;;3.33;;
5742;SDS011;2896;53.500;10.020;2022-10-16T01:47:55;4.70;;;3.33;;
5742;SDS011;2896;53.500;10.020;2022-10-16T01:50:23;4.20;;;3.10;;
5742;SDS011;2896;53.500;10.020;2022-10-16T01:52:52;8.70;;;4.03;;
5742;SDS011;2896;53.500;10.020;2022-10-16T01:55:24;3.40;;;3.10;;
5742;SDS011;2896;53.500;10.020;2022-10-16T01:57:56;3.80;;;3.50;;
5742;SDS011;2896;53.500;10.020;2022-10-16T02:00:25;3.37;;;3.13;;
5742;SDS011;2896;53.500;10.020;2022-10-16T02:02:55;6.70;;;3.30;;
5742;SDS011;2896;53.500;10.020;2022-10-16T02:05:25;4.10;;;3.00;;
5742;SDS011;2896;53.500;10.020;2022-10-16T02:07:54;9.23;;;2.97;;
5742;SDS011;2896;53.500;10.020;2022-10-16T02:10:21;3.57;;;3.27;;
5742;SDS011;2896;53.500;10.020;2022-10-16T02:12:49;5.50;;;3.40;;
5742;SDS011;2896;53.500;10.020;2022-10-16T02:15:21;8.97;;;2.90;;
5742;SDS011;2896;53.500;10.020;2022-10-16T02:17:48;3.60;;;3.40;;
5742;SDS011;2896;53.500;10.020;2022-10-16T02:20:15;5.50;;;3.50;;
5742;SDS011;2896;53.500;10.020;2022-10-16T02:22:42;4.53;;;3.10;;
5742;SDS011;2896;53.500;10.020;2022-10-16T02:25:12;6.70;;;3.27;;
5742;SDS011;2896;53.500;10.020;2022-10-16T02:27:47;8.83;;;3.30;;
5742;SDS011;2896;53.500;10.020;2022-10-16T02:30:19;20.23;;;3.53;;
5742;SDS011;2896;53.500;10.020;2022-10-16T02:32:50;2.70;;;2.60;;
5742;SDS011;2896;53.500;10.020;2022-10-16T02:35:19;2.77;;;2.63;;
5742;SDS011;2896;53.500;10.020;2022-10-16T02:37:47;4.60;;;3.13;;
5742;SDS011;2896;53.500;10.020;2022-10-16T02:40:16;5.63;;;3.23;;
5742;SDS011;2896;53.500;10.020;2022-10-16T02:42:43;4.57;;;3.00;;
5742;SDS011;2896;53.500;10.020;2022-10-16T02:45:10;3.17;;;2.87;;
5742;SDS011;2896;53.500;10.020;2022-10-16T02:47:38;3.60;;;3.30;;
5742;SDS011;2896;53.500;10.020;2022-10-16T02:50:05;8.43;;;2.73;;
5742;SDS011;2896;53.500;10.020;2022-10-16T02:52:32;2.87;;;2.40;;
5742;SDS011;2896;53.500;10.020;2022-10-16T02:54:59;2.60;;;2.03;;
5742;SDS011;2896;53.500;10.020;2022-10-16T02:57:26;7.17;;;3.00;;
5742;SDS011;2896;53.500;10.020;2022-10-16T02:59:53;4.20;;;2.47;;
5742;SDS011;2896;53.500;10.020;2022-10-16T03:02:19;4.60;;;2.70;;
5742;SDS011;2896;53.500;10.020;2022-10-16T03:04:47;3.27;;;2.50;;
5742;SDS011;2896;53.500;10.020;2022-10-16T03:07:14;4.37;;;2.60;;
5742;SDS011;2896;53.500;10.020;2022-10-16T03:09:41;3.80;;;2.73;;
5742;SDS011;2896;53.500;10.020;2022-10-16T03:12:07;3.43;;;2.30;;
5742;SDS011;2896;53.500;10.020;2022-10-16T03:14:34;5.47;;;2.50;;
5742;SDS011;2896;53.500;10.020;2022-10-16T03:17:00;4.67;;;2.43;;
5742;SDS011;2896;53.500;10.020;2022-10-16T03:19:27;2.67;;;2.43;;
5742;SDS011;2896;53.500;10.020;2022-10-16T03:21:55;2.30;;;2.20;;
5742;SDS011;2896;53.500;10.020;2022-10-16T03:24:22;2.27;;;2.17;;
5742;SDS011;2896;53.500;10.020;2022-10-16T03:26:48;3.00;;;2.40;;
5742;SDS011;2896;53.500;10.020;2022-10-16T03:29:15;3.70;;;2.83;;
5742;SDS011;2896;53.500;10.020;2022-10-16T03:31:42;7.30;;;2.90;;
5742;SDS011;2896;53.500;10.020;2022-10-16T03:34:08;14.30;;;3.00;;
5742;SDS011;2896;53.500;10.020;2022-10-16T03:36:35;7.20;;;2.93;;
5742;SDS011;2896;53.500;10.020;2022-10-16T03:39:03;4.53;;;2.60;;
5742;SDS011;2896;53.500;10.020;2022-10-16T03:41:29;6.40;;;3.80;;
5742;SDS011;2896;53.500;10.020;2022-10-16T03:43:56;2.67;;;2.47;;
5742;SDS011;2896;53.500;10.020;2022-10-16T03:46:23;3.77;;;2.57;;
5742;SDS011;2896;53.500;10.020;2022-10-16T03:48:49;6.37;;;2.97;;
5742;SDS011;2896;53.500;10.020;2022-10-16T03:51:16;5.03;;;2.40;;
5742;SDS011;2896;53.500;10.020;2022-10-16T03:53:42;4.30;;;2.60;;
5742;SDS011;2896;53.500;10.020;2022-10-16T03:56:10;3.00;;;2.30;;
5742;SDS011;2896;53.500;10.020;2022-10-16T03:58:37;6.67;;;2.83;;
5742;SDS011;2896;53.500;10.020;2022-10-16T04:01:03;4.03;;;2.63;;
5742;SDS011;2896;53.500;10.020;2022-10-16T04:03:30;5.13;;;2.40;;
5742;SDS011;2896;53.500;10.020;2022-10-16T04:05:57;3.17;;;2.97;;
5742;SDS011;2896;53.500;10.020;2022-10-16T04:08:23;5.50;;;2.87;;
5742;SDS011;2896;53.500;10.020;2022-10-16T04:10:50;4.80;;;2.67;;
5742;SDS011;2896;53.500;10.020;2022-10-16T04:13:18;2.60;;;2.33;;
5742;SDS011;2896;53.500;10.020;2022-10-16T04:15:45;8.43;;;2.47;;
5742;SDS011;2896;53.500;10.020;2022-10-16T04:18:12;2.40;;;2.30;;
5742;SDS011;2896;53.500;10.020;2022-10-16T04:20:38;2.83;;;2.50;;
5742;SDS011;2896;53.500;10.020;2022-10-16T04:23:05;3.83;;;2.60;;
5742;SDS011;2896;53.500;10.020;2022-10-16T04:25:32;7.13;;;2.33;;
5742;SDS011;2896;53.500;10.020;2022-10-16T04:27:58;2.23;;;2.00;;
5742;SDS011;2896;53.500;10.020;2022-10-16T04:30:26;2.53;;;2.33;;
5742;SDS011;2896;53.500;10.020;2022-10-16T04:32:53;2.77;;;2.50;;
5742;SDS011;2896;53.500;10.020;2022-10-16T04:35:20;3.47;;;2.70;;
5742;SDS011;2896;53.500;10.020;2022-10-16T04:37:47;3.67;;;3.10;;
5742;SDS011;2896;53.500;10.020;2022-10-16T04:40:14;3.33;;;2.50;;
5742;SDS011;2896;53.500;10.020;2022-10-16T04:42:41;5.90;;;3.00;;
5742;SDS011;2896;53.500;10.020;2022-10-16T04:45:07;10.33;;;3.27;;
5742;SDS011;2896;53.500;10.020;2022-10-16T04:47:36;4.27;;;2.63;;
5742;SDS011;2896;53.500;10.020;2022-10-16T04:50:03;9.80;;;3.00;;
5742;SDS011;2896;53.500;10.020;2022-10-16T04:52:30;3.80;;;2.77;;
5742;SDS011;2896;53.500;10.020;2022-10-16T04:54:57;8.50;;;2.97;;
5742;SDS011;2896;53.500;10.020;2022-10-16T04:57:26;4.40;;;3.07;;
5742;SDS011;2896;53.500;10.020;2022-10-16T04:59:53;7.10;;;3.50;;
5742;SDS011;2896;53.500;10.020;2022-10-16T05:02:20;3.50;;;2.90;;
5742;SDS011;2896;53.500;10.020;2022-10-16T05:04:48;4.37;;;2.57;;
5742;SDS011;2896;53.500;10.020;2022-10-16T05:07:14;12.47;;;3.40;;
5742;SDS011;2896;53.500;10.020;2022-10-16T05:09:41;7.03;;;3.83;;
5742;SDS011;2896;53.500;10.020;2022-10-16T05:12:08;6.43;;;3.27;;
5742;SDS011;2896;53.500;10.020;2022-10-16T05:14:34;9.17;;;3.47;;
5742;SDS011;2896;53.500;10.020;2022-10-16T05:17:01;5.50;;;3.40;;
5742;SDS011;2896;53.500;10.020;2022-10-16T05:19:27;6.33;;;3.50;;
5742;SDS011;2896;53.500;10.020;2022-10-16T05:21:55;11.00;;;3.70;;
5742;SDS011;2896;53.500;10.020;2022-10-16T05:24:22;14.30;;;3.90;;
5742;SDS011;2896;53.500;10.020;2022-10-16T05:26:49;4.23;;;3.67;;
5742;SDS011;2896;53.500;10.020;2022-10-16T05:29:16;5.90;;;3.30;;
5742;SDS011;2896;53.500;10.020;2022-10-16T05:31:42;3.93;;;3.40;;
5742;SDS011;2896;53.500;10.020;2022-10-16T05:34:09;12.13;;;3.47;;
5742;SDS011;2896;53.500;10.020;2022-10-16T05:36:36;3.90;;;3.53;;
5742;SDS011;2896;53.500;10.020;2022-10-16T05:39:04;3.63;;;3.20;;
5742;SDS011;2896;53.500;10.020;2022-10-16T05:41:31;6.37;;;3.30;;
5742;SDS011;2896;53.500;10.020;2022-10-16T05:43:58;5.90;;;3.60;;
5742;SDS011;2896;53.500;10.020;2022-10-16T05:46:24;5.57;;;3.10;;
5742;SDS011;2896;53.500;10.020;2022-10-16T05:48:51;5.33;;;3.17;;
5742;SDS011;2896;53.500;10.020;2022-10-16T05:51:18;8.33;;;3.30;;
5742;SDS011;2896;53.500;10.020;2022-10-16T05:53:45;5.63;;;3.50;;
5742;SDS011;2896;53.500;10.020;2022-10-16T05:56:13;3.73;;;3.43;;
5742;SDS011;2896;53.500;10.020;2022-10-16T05:58:40;5.63;;;3.27;;
5742;SDS011;2896;53.500;10.020;2022-10-16T06:01:07;5.10;;;3.13;;
5742;SDS011;2896;53.500;10.020;2022-10-16T06:03:37;3.23;;;3.03;;
5742;SDS011;2896;53.500;10.020;2022-10-16T06:06:07;5.33;;;3.37;;
5742;SDS011;2896;53.500;10.020;2022-10-16T06:08:35;8.70;;;3.37;;
5742;SDS011;2896;53.500;10.020;2022-10-16T06:11:01;8.07;;;4.00;;
5742;SDS011;2896;53.500;10.020;2022-10-16T06:13:30;5.70;;;3.60;;
5742;SDS011;2896;53.500;10.020;2022-10-16T06:15:58;5.70;;;3.70;;
5742;SDS011;2896;53.500;10.020;2022-10-16T06:18:25;13.33;;;4.10;;
5742;SDS011;2896;53.500;10.020;2022-10-16T06:20:53;14.33;;;4.47;;
5742;SDS011;2896;53.500;10.020;2022-10-16T06:23:20;5.97;;;3.87;;
5742;SDS011;2896;53.500;10.020;2022-10-16T06:25:47;12.60;;;5.47;;
5742;SDS011;2896;53.500;10.020;2022-10-16T06:28:13;8.17;;;4.03;;
5742;SDS011;2896;53.500;10.020;2022-10-16T06:30:42;5.47;;;3.77;;
5742;SDS011;2896;53.500;10.020;2022-10-16T06:33:09;5.93;;;3.80;;
5742;SDS011;2896;53.500;10.020;2022-10-16T06:35:35;6.97;;;4.40;;
5742;SDS011;2896;53.500;10.020;2022-10-16T06:38:02;7.10;;;4.40;;
5742;SDS011;2896;53.500;10.020;2022-10-16T06:40:29;6.67;;;4.23;;
5742;SDS011;2896;53.500;10.020;2022-10-16T06:42:55;10.33;;;5.13;;
5742;SDS011;2896;53.500;10.020;2022-10-16T06:45:22;6.07;;;4.03;;
5742;SDS011;2896;53.500;10.020;2022-10-16T06:47:50;16.57;;;4.97;;
5742;SDS011;2896;53.500;10.020;2022-10-16T06:50:17;9.77;;;4.60;;
5742;SDS011;2896;53.500;10.020;2022-10-16T06:52:43;7.90;;;5.70;;
5742;SDS011;2896;53.500;10.020;2022-10-16T06:55:10;11.30;;;5.10;;
5742;SDS011;2896;53.500;10.020;2022-10-16T06:57:36;6.73;;;5.00;;
5742;SDS011;2896;53.500;10.020;2022-10-16T07:00:03;8.57;;;4.40;;
5742;SDS011;2896;53.500;10.020;2022-10-16T07:02:31;5.20;;;4.70;;
5742;SDS011;2896;53.500;10.020;2022-10-16T07:05:01;6.27;;;4.90;;
5742;SDS011;2896;53.500;10.020;2022-10-16T07:07:28;11.50;;;5.60;;
5742;SDS011;2896;53.500;10.020;2022-10-16T07:09:54;6.30;;;4.97;;
5742;SDS011;2896;53.500;10.020;2022-10-16T07:12:21;9.80;;;5.60;;
5742;SDS011;2896;53.500;10.020;2022-10-16T07:14:47;8.33;;;5.33;;
5742;SDS011;2896;53.500;10.020;2022-10-16T07:17:17;9.73;;;4.33;;
5742;SDS011;2896;53.500;10.020;2022-10-16T07:19:44;7.23;;;4.70;;
5742;SDS011;2896;53.500;10.020;2022-10-16T07:22:12;5.80;;;4.93;;
5742;SDS011;2896;53.500;10.020;2022-10-16T07:24:38;12.33;;;4.67;;
5742;SDS011;2896;53.500;10.020;2022-10-16T07:27:05;4.53;;;4.10;;
5742;SDS011;2896;53.500;10.020;2022-10-16T07:29:32;4.97;;;3.97;;
5742;SDS011;2896;53.500;10.020;2022-10-16T07:31:58;4.00;;;3.73;;
5742;SDS011;2896;53.500;10.020;2022-10-16T07:34:25;4.10;;;3.73;;
5742;SDS011;2896;53.500;10.020;2022-10-16T07:36:52;8.60;;;4.17;;
5742;SDS011;2896;53.500;10.020;2022-10-16T07:39:20;4.13;;;3.73;;
5742;SDS011;2896;53.500;10.020;2022-10-16T07:41:46;5.23;;;4.47;;
5742;SDS011;2896;53.500;10.020;2022-10-16T07:44:13;4.93;;;3.67;;
5742;SDS011;2896;53.500;10.020;2022-10-16T07:46:41;6.63;;;3.50;;
5742;SDS011;2896;53.500;10.020;2022-10-16T07:49:08;15.60;;;3.87;;
5742;SDS011;2896;53.500;10.020;2022-10-16T07:51:35;4.90;;;3.40;;
5742;SDS011;2896;53.500;10.020;2022-10-16T07:54:03;4.47;;;3.53;;
5742;SDS011;2896;53.500;10.020;2022-10-16T07:56:31;7.00;;;3.80;;
5742;SDS011;2896;53.500;10.020;2022-10-16T07:58:58;3.50;;;3.30;;
5742;SDS011;2896;53.500;10.020;2022-10-16T08:01:24;13.40;;;3.87;;
5742;SDS011;2896;53.500;10.020;2022-10-16T08:03:51;8.63;;;3.13;;
5742;SDS011;2896;53.500;10.020;2022-10-16T08:06:19;8.73;;;3.77;;
5742;SDS011;2896;53.500;10.020;2022-10-16T08:08:47;5.27;;;3.60;;
5742;SDS011;2896;53.500;10.020;2022-10-16T08:11:13;4.83;;;3.10;;
5742;SDS011;2896;53.500;10.020;2022-10-16T08:13:41;3.30;;;3.00;;
5742;SDS011;2896;53.500;10.020;2022-10-16T08:16:08;6.23;;;3.40;;
5742;SDS011;2896;53.500;10.020;2022-10-16T08:18:36;3.30;;;3.10;;
5742;SDS011;2896;53.500;10.020;2022-10-16T08:21:04;2.60;;;2.40;;
5742;SDS011;2896;53.500;10.020;2022-10-16T08:23:32;2.77;;;2.67;;
5742;SDS011;2896;53.500;10.020;2022-10-16T08:26:02;6.80;;;2.97;;
5742;SDS011;2896;53.500;10.020;2022-10-16T08:28:31;3.10;;;2.90;;
5742;SDS011;2896;53.500;10.020;2022-10-16T08:31:05;5.33;;;2.87;;
5742;SDS011;2896;53.500;10.020;2022-10-16T08:33:36;5.90;;;3.20;;
5742;SDS011;2896;53.500;10.020;2022-10-16T08:36:03;6.00;;;2.87;;
5742;SDS011;2896;53.500;10.020;2022-10-16T08:38:31;3.73;;;2.47;;
5742;SDS011;2896;53.500;10.020;2022-10-16T08:41:02;2.90;;;2.70;;
5742;SDS011;2896;53.500;10.020;2022-10-16T08:43:57;2.93;;;2.00;;
5742;SDS011;2896;53.500;10.020;2022-10-16T08:46:39;4.80;;;2.57;;
5742;SDS011;2896;53.500;10.020;2022-10-16T08:49:11;3.27;;;2.70;;
5742;SDS011;2896;53.500;10.020;2022-10-16T08:51:39;9.53;;;2.53;;
5742;SDS011;2896;53.500;10.020;2022-10-16T08:54:11;5.33;;;2.33;;
5742;SDS011;2896;53.500;10.020;2022-10-16T08:56:47;5.70;;;2.83;;
5742;SDS011;2896;53.500;10.020;2022-10-16T08:59:14;5.97;;;2.50;;
5742;SDS011;2896;53.500;10.020;2022-10-16T09:01:44;2.40;;;1.77;;
5742;SDS011;2896;53.500;10.020;2022-10-16T09:04:23;9.03;;;2.50;;
5742;SDS011;2896;53.500;10.020;2022-10-16T09:07:08;7.07;;;2.63;;
5742;SDS011;2896;53.500;10.020;2022-10-16T09:09:42;5.07;;;2.50;;
5742;SDS011;2896;53.500;10.020;2022-10-16T09:12:30;4.50;;;2.00;;
5742;SDS011;2896;53.500;10.020;2022-10-16T09:15:02;11.20;;;2.00;;
5742;SDS011;2896;53.500;10.020;2022-10-16T09:17:41;3.40;;;1.93;;
5742;SDS011;2896;53.500;10.020;2022-10-16T09:20:18;14.50;;;2.60;;
5742;SDS011;2896;53.500;10.020;2022-10-16T09:22:52;2.83;;;1.97;;
5742;SDS011;2896;53.500;10.020;2022-10-16T09:25:22;2.00;;;1.90;;
5742;SDS011;2896;53.500;10.020;2022-10-16T09:27:51;1.67;;;1.57;;
5742;SDS011;2896;53.500;10.020;2022-10-16T09:30:20;2.30;;;1.80;;
5742;SDS011;2896;53.500;10.020;2022-10-16T09:32:50;3.53;;;1.80;;
5742;SDS011;2896;53.500;10.020;2022-10-16T09:35:19;2.10;;;1.73;;
5742;SDS011;2896;53.500;10.020;2022-10-16T09:37:49;2.00;;;1.80;;
5742;SDS011;2896;53.500;10.020;2022-10-16T09:40:24;4.20;;;1.50;;
5742;SDS011;2896;53.500;10.020;2022-10-16T09:42:55;3.87;;;1.50;;
5742;SDS011;2896;53.500;10.020;2022-10-16T09:45:27;6.60;;;1.63;;
5742;SDS011;2896;53.500;10.020;2022-10-16T09:47:55;3.03;;;1.50;;
5742;SDS011;2896;53.500;10.020;2022-10-16T09:50:22;2.30;;;1.90;;
5742;SDS011;2896;53.500;10.020;2022-10-16T09:52:51;4.43;;;1.63;;
5742;SDS011;2896;53.500;10.020;2022-10-16T09:55:29;6.10;;;1.87;;
5742;SDS011;2896;53.500;10.020;2022-10-16T09:57:56;7.10;;;2.23;;
5742;SDS011;2896;53.500;10.020;2022-10-16T10:00:23;6.03;;;2.50;;
5742;SDS011;2896;53.500;10.020;2022-10-16T10:02:50;5.50;;;2.10;;
5742;SDS011;2896;53.500;10.020;2022-10-16T10:05:20;3.00;;;1.40;;
5742;SDS011;2896;53.500;10.020;2022-10-16T10:07:53;2.40;;;1.67;;
5742;SDS011;2896;53.500;10.020;2022-10-16T10:10:22;2.03;;;1.83;;
5742;SDS011;2896;53.500;10.020;2022-10-16T10:12:50;7.57;;;1.90;;
5742;SDS011;2896;53.500;10.020;2022-10-16T10:15:17;3.47;;;1.50;;
5742;SDS011;2896;53.500;10.020;2022-10-16T10:17:47;2.77;;;1.30;;
5742;SDS011;2896;53.500;10.020;2022-10-16T10:20:26;2.63;;;1.80;;
5742;SDS011;2896;53.500;10.020;2022-10-16T10:22:54;3.27;;;1.63;;
5742;SDS011;2896;53.500;10.020;2022-10-16T10:25:33;3.70;;;1.73;;
5742;SDS011;2896;53.500;10.020;2022-10-16T10:28:28;3.63;;;1.67;;
5742;SDS011;2896;53.500;10.020;2022-10-16T10:31:06;2.50;;;1.60;;
5742;SDS011;2896;53.500;10.020;2022-10-16T10:33:40;3.33;;;1.60;;
5742;SDS011;2896;53.500;10.020;2022-10-16T10:36:16;6.87;;;1.60;;
5742;SDS011;2896;53.500;10.020;2022-10-16T10:38:52;3.13;;;1.23;;
5742;SDS011;2896;53.500;10.020;2022-10-16T10:41:26;2.40;;;1.27;;
5742;SDS011;2896;53.500;10.020;2022-10-16T10:44:16;2.10;;;1.47;;
5742;SDS011;2896;53.500;10.020;2022-10-16T10:46:54;4.97;;;1.30;;
5742;SDS011;2896;53.500;10.020;2022-10-16T10:52:19;5.67;;;1.57;;
5742;SDS011;2896;53.500;10.020;2022-10-16T10:55:09;8.23;;;1.60;;
5742;SDS011;2896;53.500;10.020;2022-10-16T10:57:45;3.00;;;1.37;;
5742;SDS011;2896;53.500;10.020;2022-10-16T11:00:25;6.20;;;1.67;;
5742;SDS011;2896;53.500;10.020;2022-10-16T11:02:58;2.50;;;1.30;;
5742;SDS011;2896;53.500;10.020;2022-10-16T11:05:35;2.93;;;1.47;;
5742;SDS011;2896;53.500;10.020;2022-10-16T11:08:10;5.73;;;1.67;;
5742;SDS011;2896;53.500;10.020;2022-10-16T11:10:44;2.10;;;1.67;;
5742;SDS011;2896;53.500;10.020;2022-10-16T11:13:18;9.77;;;1.80;;
5742;SDS011;2896;53.500;10.020;2022-10-16T11:15:50;4.93;;;1.43;;
5742;SDS011;2896;53.500;10.020;2022-10-16T11:18:24;6.20;;;1.80;;
5742;SDS011;2896;53.500;10.020;2022-10-16T11:20:54;1.43;;;1.33;;
5742;SDS011;2896;53.500;10.020;2022-10-16T11:23:28;12.43;;;1.57;;
5742;SDS011;2896;53.500;10.020;2022-10-16T11:26:00;6.00;;;1.53;;
5742;SDS011;2896;53.500;10.020;2022-10-16T11:28:32;4.60;;;1.40;;
5742;SDS011;2896;53.500;10.020;2022-10-16T11:31:04;2.80;;;1.37;;
5742;SDS011;2896;53.500;10.020;2022-10-16T11:33:36;6.43;;;1.43;;
5742;SDS011;2896;53.500;10.020;2022-10-16T11:36:08;1.80;;;1.07;;
5742;SDS011;2896;53.500;10.020;2022-10-16T11:38:43;6.80;;;1.70;;
5742;SDS011;2896;53.500;10.020;2022-10-16T11:41:21;2.73;;;1.30;;
5742;SDS011;2896;53.500;10.020;2022-10-16T11:43:57;1.40;;;1.30;;
5742;SDS011;2896;53.500;10.020;2022-10-16T11:46:32;1.60;;;1.00;;
5742;SDS011;2896;53.500;10.020;2022-10-16T11:49:03;2.50;;;1.30;;
5742;SDS011;2896;53.500;10.020;2022-10-16T11:51:37;4.20;;;1.43;;
5742;SDS011;2896;53.500;10.020;2022-10-16T11:54:12;5.10;;;1.50;;
5742;SDS011;2896;53.500;10.020;2022-10-16T11:56:46;1.80;;;1.40;;
5742;SDS011;2896;53.500;10.020;2022-10-16T11:59:17;4.83;;;1.77;;
5742;SDS011;2896;53.500;10.020;2022-10-16T12:01:50;2.77;;;1.50;;
5742;SDS011;2896;53.500;10.020;2022-10-16T12:04:24;2.97;;;1.70;;
5742;SDS011;2896;53.500;10.020;2022-10-16T12:06:59;4.27;;;1.50;;
5742;SDS011;2896;53.500;10.020;2022-10-16T12:09:32;5.80;;;1.80;;
5742;SDS011;2896;53.500;10.020;2022-10-16T12:12:00;6.00;;;1.53;;
5742;SDS011;2896;53.500;10.020;2022-10-16T12:14:34;6.93;;;1.90;;
5742;SDS011;2896;53.500;10.020;2022-10-16T12:17:03;4.57;;;1.97;;
5742;SDS011;2896;53.500;10.020;2022-10-16T12:19:56;2.20;;;1.50;;
5742;SDS011;2896;53.500;10.020;2022-10-16T12:22:23;2.70;;;1.30;;
5742;SDS011;2896;53.500;10.020;2022-10-16T12:24:56;2.57;;;1.30;;
5742;SDS011;2896;53.500;10.020;2022-10-16T12:27:24;1.47;;;1.37;;
5742;SDS011;2896;53.500;10.020;2022-10-16T12:29:55;7.23;;;1.47;;
5742;SDS011;2896;53.500;10.020;2022-10-16T12:32:24;3.47;;;1.40;;
5742;SDS011;2896;53.500;10.020;2022-10-16T12:34:55;3.30;;;1.60;;
5742;SDS011;2896;53.500;10.020;2022-10-16T12:37:22;4.93;;;1.50;;
5742;SDS011;2896;53.500;10.020;2022-10-16T12:39:51;7.03;;;1.60;;
5742;SDS011;2896;53.500;10.020;2022-10-16T12:42:23;3.90;;;1.93;;
5742;SDS011;2896;53.500;10.020;2022-10-16T12:44:58;6.20;;;1.60;;
5742;SDS011;2896;53.500;10.020;2022-10-16T12:47:35;1.63;;;1.30;;
5742;SDS011;2896;53.500;10.020;2022-10-16T12:50:21;4.50;;;1.47;;
5742;SDS011;2896;53.500;10.020;2022-10-16T12:52:51;3.13;;;1.30;;
5742;SDS011;2896;53.500;10.020;2022-10-16T12:55:19;2.90;;;1.50;;
5742;SDS011;2896;53.500;10.020;2022-10-16T12:57:53;1.80;;;1.60;;
5742;SDS011;2896;53.500;10.020;2022-10-16T13:00:31;6.00;;;2.07;;
5742;SDS011;2896;53.500;10.020;2022-10-16T13:06:18;9.07;;;1.60;;
5742;SDS011;2896;53.500;10.020;2022-10-16T13:08:54;3.50;;;1.60;;
5742;SDS011;2896;53.500;10.020;2022-10-16T13:11:34;8.53;;;1.70;;
5742;SDS011;2896;53.500;10.020;2022-10-16T13:14:20;8.70;;;2.00;;
5742;SDS011;2896;53.500;10.020;2022-10-16T13:16:59;3.57;;;2.00;;
5742;SDS011;2896;53.500;10.020;2022-10-16T13:19:33;6.50;;;1.73;;
5742;SDS011;2896;53.500;10.020;2022-10-16T13:22:05;4.87;;;1.90;;
5742;SDS011;2896;53.500;10.020;2022-10-16T13:24:44;5.47;;;1.90;;
5742;SDS011;2896;53.500;10.020;2022-10-16T13:27:20;4.23;;;1.60;;
5742;SDS011;2896;53.500;10.020;2022-10-16T13:30:00;3.13;;;1.43;;
5742;SDS011;2896;53.500;10.020;2022-10-16T13:32:34;6.33;;;1.73;;
5742;SDS011;2896;53.500;10.020;2022-10-16T13:35:00;6.90;;;1.90;;
5742;SDS011;2896;53.500;10.020;2022-10-16T13:37:29;7.27;;;1.67;;
5742;SDS011;2896;53.500;10.020;2022-10-16T13:40:02;6.43;;;1.57;;
5742;SDS011;2896;53.500;10.020;2022-10-16T13:42:43;3.33;;;1.90;;
5742;SDS011;2896;53.500;10.020;2022-10-16T13:45:18;6.20;;;1.63;;
5742;SDS011;2896;53.500;10.020;2022-10-16T13:47:46;6.00;;;2.07;;
5742;SDS011;2896;53.500;10.020;2022-10-16T13:50:13;6.33;;;1.40;;
5742;SDS011;2896;53.500;10.020;2022-10-16T13:52:41;5.93;;;2.30;;
5742;SDS011;2896;53.500;10.020;2022-10-16T13:55:10;1.43;;;0.93;;
5742;SDS011;2896;53.500;10.020;2022-10-16T13:57:37;5.67;;;1.47;;
5742;SDS011;2896;53.500;10.020;2022-10-16T14:00:17;2.40;;;1.57;;
5742;SDS011;2896;53.500;10.020;2022-10-16T14:02:45;3.07;;;1.53;;
5742;SDS011;2896;53.500;10.020;2022-10-16T14:05:20;8.00;;;2.50;;
5742;SDS011;2896;53.500;10.020;2022-10-16T14:07:48;7.20;;;2.20;;
5742;SDS011;2896;53.500;10.020;2022-10-16T14:10:20;3.70;;;1.40;;
5742;SDS011;2896;53.500;10.020;2022-10-16T14:12:57;3.40;;;1.67;;
5742;SDS011;2896;53.500;10.020;2022-10-16T14:15:26;5.03;;;2.07;;
5742;SDS011;2896;53.500;10.020;2022-10-16T14:17:55;7.53;;;1.97;;
5742;SDS011;2896;53.500;10.020;2022-10-16T14:20:23;4.00;;;1.67;;
5742;SDS011;2896;53.500;10.020;2022-10-16T14:23:02;2.80;;;1.40;;
5742;SDS011;2896;53.500;10.020;2022-10-16T14:25:30;9.10;;;1.80;;
5742;SDS011;2896;53.500;10.020;2022-10-16T14:28:02;5.60;;;1.90;;
5742;SDS011;2896;53.500;10.020;2022-10-16T14:30:32;16.57;;;2.37;;
5742;SDS011;2896;53.500;10.020;2022-10-16T14:33:02;6.00;;;2.70;;
5742;SDS011;2896;53.500;10.020;2022-10-16T14:35:30;10.50;;;2.90;;
5742;SDS011;2896;53.500;10.020;2022-10-16T14:37:59;6.30;;;1.47;;
5742;SDS011;2896;53.500;10.020;2022-10-16T14:40:28;8.20;;;2.47;;
5742;SDS011;2896;53.500;10.020;2022-10-16T14:42:56;3.43;;;1.80;;
5742;SDS011;2896;53.500;10.020;2022-10-16T14:45:24;4.73;;;2.40;;
5742;SDS011;2896;53.500;10.020;2022-10-16T14:47:55;13.83;;;2.33;;
5742;SDS011;2896;53.500;10.020;2022-10-16T14:50:23;8.57;;;2.93;;
5742;SDS011;2896;53.500;10.020;2022-10-16T14:52:51;5.37;;;1.80;;
5742;SDS011;2896;53.500;10.020;2022-10-16T14:55:17;2.67;;;2.47;;
5742;SDS011;2896;53.500;10.020;2022-10-16T14:57:44;9.97;;;3.00;;
5742;SDS011;2896;53.500;10.020;2022-10-16T15:00:14;9.63;;;2.40;;
5742;SDS011;2896;53.500;10.020;2022-10-16T15:02:43;4.07;;;2.77;;
5742;SDS011;2896;53.500;10.020;2022-10-16T15:05:13;3.80;;;2.63;;
5742;SDS011;2896;53.500;10.020;2022-10-16T15:07:42;18.03;;;5.07;;
5742;SDS011;2896;53.500;10.020;2022-10-16T15:10:09;3.07;;;2.10;;
5742;SDS011;2896;53.500;10.020;2022-10-16T15:12:36;6.30;;;2.23;;
5742;SDS011;2896;53.500;10.020;2022-10-16T15:15:10;3.97;;;1.70;;
5742;SDS011;2896;53.500;10.020;2022-10-16T15:17:49;3.83;;;1.57;;
5742;SDS011;2896;53.500;10.020;2022-10-16T15:20:18;4.03;;;2.43;;
5742;SDS011;2896;53.500;10.020;2022-10-16T15:22:45;4.63;;;2.27;;